Time;durP1;ratioP1;P1;durP2;ratioP2;P2;SDS_P1;SDS_P2;PMS_P1;PMS_P2;Temp;Humidity;BMP_temperature;BMP_pressure;BME280_temperature;BME280_humidity;BME280_pressure;Samples;Min_cycle;Max_cycle;Signal;HPM_P1;HPM_P2
2021/07/03 00:01:06;;;;;;;9.15;4.80;;;;;;;20.95;76.03;98461.69;3473268;28;20092;-43
2021/07/03 00:02:47;;;;;;;8.75;4.32;;;;;;;20.94;76.41;98460.00;3483654;28;20469;-42
2021/07/03 00:04:29;;;;;;;7.53;4.60;;;;;;;20.95;75.83;98459.06;3479375;28;20079;-43
2021/07/03 00:06:10;;;;;;;8.00;4.63;;;;;;;20.95;76.54;98464.31;3483385;28;20143;-44
2021/07/03 00:07:52;;;;;;;8.55;4.68;;;;;;;20.95;76.02;98460.84;3472910;28;20077;-43
2021/07/03 00:09:34;;;;;;;10.07;4.22;;;;;;;20.95;76.40;98466.97;3472105;28;20211;-43
2021/07/03 00:11:15;;;;;;;7.07;4.15;;;;;;;20.95;75.23;98463.47;3470316;28;20103;-43
2021/07/03 00:12:58;;;;;;;6.97;4.60;;;;;;;20.92;75.99;98464.47;3474472;28;20072;-43
2021/07/03 00:14:39;;;;;;;7.22;4.07;;;;;;;20.92;75.53;98460.97;3470020;28;20060;-43
2021/07/03 00:16:21;;;;;;;8.35;4.32;;;;;;;20.91;75.29;98460.13;3476537;28;20140;-42
2021/07/03 00:18:04;;;;;;;9.48;4.05;;;;;;;20.88;75.07;98461.13;3483103;28;20552;-42
2021/07/03 00:19:46;;;;;;;11.00;4.43;;;;;;;20.85;75.38;98458.66;3479743;28;20334;-42
2021/07/03 00:21:28;;;;;;;7.28;4.18;;;;;;;20.83;75.55;98465.75;3480601;28;20080;-42
2021/07/03 00:23:09;;;;;;;9.55;3.75;;;;;;;20.81;75.31;98462.34;3482093;28;20072;-43
2021/07/03 00:24:51;;;;;;;8.35;4.03;;;;;;;20.77;76.11;98460.78;3479098;28;20099;-43
2021/07/03 00:26:32;;;;;;;9.57;4.25;;;;;;;20.76;75.98;98453.81;3483485;28;20226;-43
2021/07/03 00:28:14;;;;;;;6.50;4.20;;;;;;;20.74;76.42;98453.03;3475421;28;20080;-42
2021/07/03 00:29:55;;;;;;;8.52;3.90;;;;;;;20.74;76.22;98458.28;3469473;28;20057;-43
2021/07/03 00:31:37;;;;;;;9.23;4.10;;;;;;;20.74;76.87;98454.81;3479439;28;20146;-43
2021/07/03 00:33:19;;;;;;;10.90;3.80;;;;;;;20.71;76.70;98445.22;3480552;28;20179;-43
2021/07/03 00:35:01;;;;;;;7.53;3.78;;;;;;;20.72;76.26;98446.09;3481845;28;20464;-42
2021/07/03 00:36:42;;;;;;;8.50;4.07;;;;;;;20.70;76.58;98440.91;3478774;28;20085;-43
2021/07/03 00:38:24;;;;;;;4.43;3.35;;;;;;;20.69;75.93;98437.41;3483358;28;20072;-44
2021/07/03 00:40:06;;;;;;;8.80;3.78;;;;;;;20.66;76.74;98434.91;3475570;28;20593;-43
2021/07/03 00:41:48;;;;;;;7.20;3.75;;;;;;;20.62;77.00;98435.13;3469411;28;20060;-43
2021/07/03 00:43:29;;;;;;;10.75;4.38;;;;;;;20.59;77.07;98433.50;3478814;28;20477;-43
2021/07/03 00:45:11;;;;;;;6.88;3.50;;;;;;;20.60;76.68;98429.91;3480382;28;20136;-44
2021/07/03 00:46:53;;;;;;;7.47;4.20;;;;;;;20.59;76.84;98430.00;3481754;28;20080;-44
2021/07/03 00:48:34;;;;;;;8.63;3.85;;;;;;;20.58;77.41;98420.41;3478686;28;20057;-43
2021/07/03 00:50:16;;;;;;;8.27;4.40;;;;;;;20.56;77.61;98423.09;3483235;28;20084;-44
2021/07/03 00:51:57;;;;;;;7.15;4.05;;;;;;;20.53;78.14;98415.34;3478537;28;20083;-45
2021/07/03 00:53:39;;;;;;;5.60;3.90;;;;;;;20.53;77.61;98417.97;3469682;28;20453;-44
2021/07/03 00:55:20;;;;;;;7.07;3.95;;;;;;;20.52;77.52;98419.75;3472081;28;20170;-43
2021/07/03 00:57:03;;;;;;;6.78;3.80;;;;;;;20.52;76.88;98413.63;3478302;28;20053;-43
2021/07/03 00:58:45;;;;;;;10.25;4.18;;;;;;;20.52;76.90;98411.00;3481820;28;20084;-43
2021/07/03 01:00:26;;;;;;;10.20;4.10;;;;;;;20.52;78.08;98405.72;3480260;28;20520;-44
2021/07/03 01:02:10;;;;;;;6.50;3.70;;;;;;;20.52;77.32;98409.22;3482736;28;20080;-44
2021/07/03 01:03:51;;;;;;;9.32;3.53;;;;;;;20.53;77.57;98407.44;3474857;28;20571;-43
2021/07/03 01:05:33;;;;;;;6.63;3.63;;;;;;;20.52;77.67;98405.72;3469451;28;20502;-43
2021/07/03 01:07:14;;;;;;;6.00;3.97;;;;;;;20.49;78.39;98406.72;3478853;28;20496;-44
2021/07/03 01:08:55;;;;;;;9.65;4.10;;;;;;;20.48;78.72;98406.78;3480550;28;20076;-43
2021/07/03 01:10:37;;;;;;;8.45;5.07;;;;;;;20.46;79.21;98411.28;3469686;28;20479;-44
2021/07/03 01:12:18;;;;;;;8.27;4.30;;;;;;;20.42;79.00;98402.66;3472667;28;20080;-43
2021/07/03 01:14:02;;;;;;;7.50;4.10;;;;;;;20.39;79.15;98396.69;3469566;28;20073;-43
2021/07/03 01:15:44;;;;;;;11.35;4.35;;;;;;;20.36;79.67;98400.34;3478669;28;20087;-43
2021/07/03 01:17:26;;;;;;;10.55;4.07;;;;;;;20.35;79.97;98398.63;3481350;28;20057;-43
2021/07/03 01:19:07;;;;;;;9.00;3.88;;;;;;;20.36;80.01;98402.09;3477937;28;20049;-43
2021/07/03 01:20:53;;;;;;;11.05;4.53;;;;;;;20.37;79.00;98395.91;3478623;28;20108;-43
2021/07/03 01:22:36;;;;;;;8.98;3.75;;;;;;;20.37;79.60;98396.75;3481153;28;20080;-43
2021/07/03 01:24:21;;;;;;;8.43;4.05;;;;;;;20.36;79.80;98394.19;3470443;28;20502;-44
2021/07/03 01:26:02;;;;;;;;;;;;;;;20.35;79.65;98395.97;3469636;28;20135;-43
2021/07/03 01:27:56;;;;;;;8.75;4.07;;;;;;;20.33;79.82;98401.31;3470868;28;20405;-43
2021/07/03 01:29:37;;;;;;;8.60;4.10;;;;;;;20.36;79.91;98402.09;3470643;28;20072;-43
2021/07/03 01:31:19;;;;;;;8.48;4.68;;;;;;;20.36;79.63;98395.06;3480326;28;20053;-43
2021/07/03 01:33:01;;;;;;;5.03;3.50;;;;;;;20.35;78.87;98401.25;3478760;28;20048;-44
2021/07/03 01:34:43;;;;;;;7.72;4.30;;;;;;;20.31;80.04;98403.16;3468901;28;20076;-43
2021/07/03 01:36:25;;;;;;;5.73;4.07;;;;;;;20.28;80.09;98400.66;3472834;28;20085;-44
2021/07/03 01:38:07;;;;;;;9.05;4.43;;;;;;;20.25;80.69;98397.31;3468432;28;20793;-44
2021/07/03 01:39:49;;;;;;;10.75;4.32;;;;;;;20.20;81.52;98386.16;3478626;28;20076;-43
2021/07/03 01:41:30;;;;;;;8.82;4.70;;;;;;;20.19;81.07;98389.72;3480438;28;20135;-44
2021/07/03 01:43:11;;;;;;;7.15;4.72;;;;;;;20.17;81.66;98391.59;3482145;28;20137;-44
2021/07/03 01:44:53;;;;;;;7.60;4.70;;;;;;;20.15;82.26;98381.13;3478665;28;20056;-43
2021/07/03 01:46:35;;;;;;;8.15;4.55;;;;;;;20.13;82.09;98386.44;3468338;28;20085;-44
2021/07/03 01:48:23;;;;;;;9.35;5.20;;;;;;;20.13;82.24;98391.72;3473776;28;20133;-43
2021/07/03 01:50:06;;;;;;;7.57;5.40;;;;;;;20.13;82.43;98396.13;3480849;28;20044;-44
2021/07/03 01:51:48;;;;;;;8.45;5.05;;;;;;;20.13;81.23;98396.97;3471277;28;20104;-43
2021/07/03 01:53:30;;;;;;;9.15;4.95;;;;;;;20.12;82.57;98411.06;3468743;28;20122;-43
2021/07/03 01:55:12;;;;;;;9.55;5.18;;;;;;;20.12;82.96;98404.94;3481974;28;20084;-43
2021/07/03 01:57:00;;;;;;;8.30;5.30;;;;;;;20.12;83.00;98400.53;3476947;28;20092;-44
2021/07/03 01:58:41;;;;;;;8.35;5.00;;;;;;;20.14;83.32;98395.19;3482368;28;20076;-43
2021/07/03 02:00:22;;;;;;;10.60;5.63;;;;;;;20.15;83.41;98402.19;3477899;28;20539;-44
2021/07/03 02:02:04;;;;;;;7.57;4.40;;;;;;;20.17;81.50;98397.69;3480943;28;20140;-43
2021/07/03 02:03:46;;;;;;;6.35;4.50;;;;;;;20.19;82.27;98395.84;3478853;28;20394;-43
2021/07/03 02:05:27;;;;;;;15.20;5.85;;;;;;;20.22;83.19;98400.09;3480109;28;20048;-44
2021/07/03 02:07:09;;;;;;;8.50;5.88;;;;;;;20.21;82.92;98401.88;3468496;28;20470;-43
2021/07/03 02:08:51;;;;;;;8.82;5.78;;;;;;;20.21;82.26;98398.41;3472111;28;20135;-44
2021/07/03 02:10:32;;;;;;;10.60;6.30;;;;;;;20.19;83.86;98398.47;3481880;28;20076;-43
2021/07/03 02:12:13;;;;;;;9.32;5.88;;;;;;;20.18;83.32;98402.00;3473033;28;20081;-44
2021/07/03 02:13:54;;;;;;;8.43;5.30;;;;;;;20.18;82.59;98401.16;3469282;28;20707;-43
2021/07/03 02:15:36;;;;;;;9.50;5.82;;;;;;;20.19;82.53;98406.38;3470258;28;20148;-44
2021/07/03 02:17:17;;;;;;;9.20;5.38;;;;;;;20.17;84.25;98402.97;3470143;28;20132;-44
2021/07/03 02:18:59;;;;;;;9.32;6.20;;;;;;;20.20;84.27;98404.59;3482287;28;20079;-44
2021/07/03 02:20:41;;;;;;;10.57;6.15;;;;;;;20.18;83.56;98402.00;3477497;28;20132;-45
2021/07/03 02:22:22;;;;;;;9.60;6.45;;;;;;;20.18;84.43;98409.91;3481797;28;20078;-45
2021/07/03 02:24:05;;;;;;;11.73;6.15;;;;;;;20.18;84.47;98417.81;3477817;28;20087;-43
2021/07/03 02:25:47;;;;;;;7.78;5.70;;;;;;;20.20;84.19;98415.13;3480041;28;20143;-44
2021/07/03 02:27:28;;;;;;;10.23;6.43;;;;;;;20.22;85.00;98415.88;3479034;28;20130;-44
2021/07/03 02:29:10;;;;;;;11.95;6.07;;;;;;;20.24;85.01;98417.53;3476533;28;20068;-43
2021/07/03 02:30:52;;;;;;;8.75;6.72;;;;;;;20.26;85.32;98413.06;3482241;28;20139;-45
2021/07/03 02:32:34;;;;;;;10.13;6.37;;;;;;;20.31;85.97;98412.84;3477890;28;20076;-44
2021/07/03 02:34:15;;;;;;;9.07;6.40;;;;;;;20.34;85.92;98415.31;3481836;28;20486;-44
2021/07/03 02:35:56;;;;;;;9.02;6.13;;;;;;;20.38;85.67;98416.06;3476368;28;20056;-42
2021/07/03 02:37:38;;;;;;;9.77;6.68;;;;;;;20.37;85.44;98409.94;3480880;28;20605;-43
2021/07/03 02:39:20;;;;;;;9.85;6.30;;;;;;;20.38;85.48;98409.00;3479109;28;20087;-43
2021/07/03 02:41:02;;;;;;;10.23;6.82;;;;;;;20.37;85.47;98409.09;3478038;28;20507;-44
2021/07/03 02:42:44;;;;;;;10.40;6.97;;;;;;;20.37;85.40;98411.72;3481918;28;20538;-43
2021/07/03 02:44:25;;;;;;;11.13;6.90;;;;;;;20.34;85.83;98402.16;3477564;28;20269;-43
2021/07/03 02:46:06;;;;;;;12.95;7.55;;;;;;;20.32;85.35;98401.38;3482231;28;20118;-43
2021/07/03 02:47:47;;;;;;;9.77;7.65;;;;;;;20.31;86.50;98408.44;3477481;28;20045;-45
2021/07/03 02:49:29;;;;;;;11.65;7.47;;;;;;;20.30;86.94;98411.97;3481073;28;20087;-43
2021/07/03 02:51:10;;;;;;;9.88;8.18;;;;;;;20.30;87.17;98408.50;3470904;28;20144;-43
2021/07/03 02:52:51;;;;;;;9.38;7.78;;;;;;;20.28;87.46;98411.22;3467623;28;20053;-43
2021/07/03 02:54:33;;;;;;;12.57;7.72;;;;;;;20.28;88.06;98403.31;3480849;28;20183;-44
2021/07/03 02:56:15;;;;;;;9.88;7.28;;;;;;;20.30;88.19;98414.63;3476154;28;20126;-43
2021/07/03 02:57:56;;;;;;;9.45;7.43;;;;;;;20.32;88.12;98407.53;3482021;28;20493;-43
2021/07/03 02:59:37;;;;;;;9.95;7.70;;;;;;;20.37;87.68;98411.72;3473515;28;20076;-43
2021/07/03 03:01:19;;;;;;;10.45;7.95;;;;;;;20.39;88.43;98421.25;3468937;28;20081;-43
2021/07/03 03:03:00;;;;;;;10.27;7.55;;;;;;;20.43;88.69;98419.31;3478474;28;20064;-43
2021/07/03 03:04:42;;;;;;;9.43;7.45;;;;;;;20.43;88.50;98421.94;3477128;28;20508;-43
2021/07/03 03:06:23;;;;;;;8.77;7.50;;;;;;;20.47;88.50;98424.38;3481214;28;20148;-43
2021/07/03 03:08:05;;;;;;;10.40;7.70;;;;;;;20.50;88.64;98429.50;3477031;28;20080;-43
2021/07/03 03:09:47;;;;;;;10.75;8.07;;;;;;;20.55;89.00;98431.91;3467658;28;20077;-43
2021/07/03 03:11:28;;;;;;;10.18;8.00;;;;;;;20.59;88.72;98422.09;3470618;28;20073;-42
2021/07/03 03:13:09;;;;;;;10.93;7.57;;;;;;;20.63;88.77;98431.56;3467901;28;20077;-43
2021/07/03 03:14:51;;;;;;;9.02;7.63;;;;;;;20.65;88.95;98429.72;3478360;28;20045;-43
2021/07/03 03:16:33;;;;;;;9.02;6.70;;;;;;;20.68;88.87;98432.22;3479718;28;20053;-43
2021/07/03 03:18:15;;;;;;;12.02;7.85;;;;;;;20.71;89.19;98426.78;3468373;28;20478;-43
2021/07/03 03:19:56;;;;;;;8.77;7.38;;;;;;;20.73;88.83;98437.25;3470681;28;20144;-43
2021/07/03 03:21:42;;;;;;;8.68;7.43;;;;;;;20.78;88.98;98430.84;3482031;28;20550;-42
2021/07/03 03:23:23;;;;;;;8.85;7.47;;;;;;;20.82;89.57;98439.50;3472934;28;20081;-43
2021/07/03 03:25:07;;;;;;;9.70;7.60;;;;;;;20.85;88.43;98436.69;3473495;28;20077;-42
2021/07/03 03:26:48;;;;;;;;;;;;;;;20.89;88.56;98427.72;3470586;28;20199;-43
2021/07/03 03:28:29;;;;;;;9.40;7.75;;;;;;;20.92;87.97;98434.63;3471126;28;20292;-43
2021/07/03 03:30:12;;;;;;;9.60;7.32;;;;;;;20.92;87.58;98432.81;3467914;28;20056;-43
2021/07/03 03:31:53;;;;;;;8.77;6.65;;;;;;;20.93;87.64;98438.97;3470539;28;20530;-43
2021/07/03 03:33:35;;;;;;;7.50;6.80;;;;;;;20.93;87.57;98431.91;3467783;28;20199;-43
2021/07/03 03:35:28;;;;;;;6.30;5.70;;;;;;;20.92;86.37;98427.56;3476707;28;20053;-43
2021/07/03 03:37:09;;;;;;;12.32;6.55;;;;;;;20.86;86.55;98423.44;3479504;28;20076;-43
2021/07/03 03:38:51;;;;;;;8.45;6.50;;;;;;;20.86;86.97;98431.34;3468698;28;20084;-43
2021/07/03 03:40:33;;;;;;;10.07;6.63;;;;;;;20.89;87.53;98427.72;3470493;28;20045;-42
2021/07/03 03:42:14;;;;;;;8.10;6.63;;;;;;;20.94;88.02;98424.84;3481749;28;20052;-43
2021/07/03 03:43:57;;;;;;;9.85;6.97;;;;;;;20.99;88.06;98436.88;3477140;28;20514;-43
2021/07/03 03:45:38;;;;;;;8.10;6.63;;;;;;;21.05;87.89;98436.59;3481003;28;20049;-42
2021/07/03 03:47:20;;;;;;;10.50;7.60;;;;;;;21.11;87.84;98432.78;3479988;28;20049;-42
2021/07/03 03:49:02;;;;;;;9.02;7.45;;;;;;;21.14;86.50;98435.28;3481061;28;20087;-43
2021/07/03 03:50:43;;;;;;;13.30;8.20;;;;;;;21.21;87.76;98441.13;3481251;28;20151;-43
2021/07/03 03:52:24;;;;;;;10.55;7.10;;;;;;;21.24;86.08;98435.66;3477804;28;20172;-43
2021/07/03 03:54:06;;;;;;;8.85;7.15;;;;;;;21.28;85.85;98434.59;3484109;28;20138;-44
2021/07/03 03:55:48;;;;;;;13.15;7.85;;;;;;;21.35;85.57;98432.53;3478106;28;20513;-43
2021/07/03 03:57:29;;;;;;;12.75;7.53;;;;;;;21.37;84.68;98439.41;3483722;28;20154;-42
2021/07/03 03:59:12;;;;;;;7.85;6.78;;;;;;;21.41;84.23;98435.69;3477701;28;20057;-42
2021/07/03 04:00:53;;;;;;;8.40;6.07;;;;;;;21.46;84.78;98438.94;3482124;28;20124;-42
2021/07/03 04:02:34;;;;;;;7.38;6.15;;;;;;;21.50;83.93;98450.19;3481376;28;20529;-42
2021/07/03 04:04:17;;;;;;;8.77;6.82;;;;;;;21.56;84.84;98441.09;3480263;28;20546;-44
2021/07/03 04:05:58;;;;;;;7.20;6.15;;;;;;;21.62;83.97;98441.69;3470076;28;20085;-43
2021/07/03 04:07:40;;;;;;;9.15;5.78;;;;;;;21.65;83.00;98443.34;3475797;28;20576;-43
2021/07/03 04:09:21;;;;;;;11.60;5.97;;;;;;;21.66;82.67;98444.16;3483859;28;20073;-42
2021/07/03 04:11:04;;;;;;;7.40;6.18;;;;;;;21.71;82.78;98450.06;3478403;28;20144;-43
2021/07/03 04:12:45;;;;;;;8.82;5.65;;;;;;;21.72;81.55;98439.44;3481744;28;20284;-42
2021/07/03 04:14:26;;;;;;;7.40;5.05;;;;;;;21.74;81.68;98442.00;3481286;28;20111;-44
2021/07/03 04:16:07;;;;;;;7.80;4.90;;;;;;;21.75;81.10;98438.41;3479222;28;20088;-43
2021/07/03 04:17:49;;;;;;;9.82;5.53;;;;;;;21.77;81.97;98440.06;3469921;28;20111;-43
2021/07/03 04:19:31;;;;;;;7.38;5.55;;;;;;;21.79;80.27;98434.69;3474138;28;20506;-43
2021/07/03 04:21:12;;;;;;;4.85;4.35;;;;;;;21.81;79.80;98430.19;3483450;28;20080;-42
2021/07/03 04:22:53;;;;;;;9.25;5.30;;;;;;;21.82;79.58;98432.75;3472212;28;20069;-42
2021/07/03 04:24:35;;;;;;;6.47;4.90;;;;;;;21.85;79.24;98433.53;3469548;28;20107;-42
2021/07/03 04:26:17;;;;;;;6.93;4.85;;;;;;;21.87;79.19;98434.28;3480413;28;20057;-43
2021/07/03 04:27:58;;;;;;;10.23;5.10;;;;;;;21.90;79.51;98432.34;3480699;28;20534;-42
2021/07/03 04:29:40;;;;;;;9.13;5.05;;;;;;;21.96;79.70;98432.00;3483769;28;20076;-43
2021/07/03 04:31:21;;;;;;;7.28;5.13;;;;;;;21.96;78.14;98437.28;3477039;28;20069;-42
2021/07/03 04:33:03;;;;;;;9.10;5.35;;;;;;;21.95;77.90;98432.94;3469795;28;20060;-43
2021/07/03 04:34:44;;;;;;;9.77;5.18;;;;;;;21.95;78.11;98437.38;3471902;28;20072;-42
2021/07/03 04:36:25;;;;;;;8.98;5.32;;;;;;;21.89;77.96;98438.53;3470914;28;20080;-42
2021/07/03 04:38:07;;;;;;;7.15;4.95;;;;;;;21.87;77.98;98443.06;3480792;28;20524;-43
2021/07/03 04:39:48;;;;;;;9.30;5.07;;;;;;;21.85;77.84;98442.28;3477605;28;20053;-42
2021/07/03 04:41:30;;;;;;;8.55;5.53;;;;;;;21.83;78.30;98439.72;3483302;28;20076;-42
2021/07/03 04:43:12;;;;;;;6.65;5.25;;;;;;;21.81;78.74;98440.75;3477005;28;20049;-42
2021/07/03 04:44:53;;;;;;;6.75;5.18;;;;;;;21.79;78.24;98434.69;3470055;28;20140;-42
2021/07/03 04:46:35;;;;;;;7.63;5.82;;;;;;;21.75;78.86;98433.13;3478207;28;20136;-43
2021/07/03 04:48:16;;;;;;;9.88;5.68;;;;;;;21.71;78.57;98437.72;3481274;28;20499;-43
2021/07/03 04:49:58;;;;;;;7.10;5.15;;;;;;;21.70;79.09;98436.03;3480810;28;20370;-43
2021/07/03 04:51:39;;;;;;;8.68;5.05;;;;;;;21.71;78.95;98437.72;3478998;28;20048;-42
2021/07/03 04:53:21;;;;;;;8.60;5.85;;;;;;;21.72;78.58;98441.19;3471641;28;20077;-42
2021/07/03 04:55:03;;;;;;;13.02;5.90;;;;;;;21.73;78.95;98442.91;3473016;28;20084;-42
2021/07/03 04:56:45;;;;;;;9.50;5.80;;;;;;;21.76;79.71;98438.34;3471690;28;20346;-43
2021/07/03 04:58:26;;;;;;;8.57;5.85;;;;;;;21.84;79.34;98440.56;3477562;28;20549;-42
2021/07/03 05:00:09;;;;;;;9.27;5.40;;;;;;;21.93;79.83;98442.75;3481197;28;20053;-42
2021/07/03 05:01:50;;;;;;;10.25;5.82;;;;;;;22.00;78.63;98437.97;3480656;28;20087;-42
2021/07/03 05:03:32;;;;;;;10.77;5.70;;;;;;;22.07;78.57;98441.16;3478619;28;20094;-42
2021/07/03 05:05:13;;;;;;;9.85;5.95;;;;;;;22.13;78.31;98443.47;3483098;28;20083;-43
2021/07/03 05:06:54;;;;;;;8.68;6.72;;;;;;;22.19;78.17;98440.50;3476826;28;20522;-43
2021/07/03 05:08:35;;;;;;;12.82;6.18;;;;;;;22.26;78.39;98438.38;3469447;28;20077;-43
2021/07/03 05:10:17;;;;;;;10.55;6.22;;;;;;;22.34;78.74;98441.47;3472257;28;20143;-43
2021/07/03 05:11:59;;;;;;;9.23;6.43;;;;;;;22.42;78.46;98438.41;3470167;28;20077;-42
2021/07/03 05:13:40;;;;;;;9.20;6.20;;;;;;;22.47;77.85;98434.59;3471700;28;20138;-42
2021/07/03 05:15:22;;;;;;;8.32;6.32;;;;;;;22.54;78.18;98438.59;3469677;28;20079;-43
2021/07/03 05:17:04;;;;;;;9.60;6.25;;;;;;;22.59;77.87;98438.38;3482674;28;20551;-42
2021/07/03 05:18:45;;;;;;;7.82;6.50;;;;;;;22.70;77.70;98435.97;3477875;28;20045;-42
2021/07/03 05:20:26;;;;;;;8.07;6.30;;;;;;;22.82;77.02;98429.16;3482925;28;20056;-43
2021/07/03 05:22:08;;;;;;;15.30;6.70;;;;;;;22.94;76.77;98425.81;3479967;28;20453;-43
2021/07/03 05:23:49;;;;;;;11.75;6.22;;;;;;;23.03;75.69;98431.53;3478848;28;20130;-43
2021/07/03 05:25:30;;;;;;;8.70;6.22;;;;;;;23.18;75.81;98429.78;3481822;28;20144;-43
2021/07/03 05:27:12;;;;;;;7.78;6.53;;;;;;;23.30;74.67;98427.28;3475704;28;20073;-43
2021/07/03 05:28:54;;;;;;;13.85;6.63;;;;;;;23.49;74.07;98436.81;3477287;28;20072;-43
2021/07/03 05:30:36;;;;;;;7.85;5.55;;;;;;;23.62;71.37;98434.28;3474218;28;20077;-43
2021/07/03 05:32:22;;;;;;;7.68;5.10;;;;;;;23.75;71.70;98439.69;3476548;28;20059;-42
2021/07/03 05:34:03;;;;;;;7.90;5.93;;;;;;;23.84;71.08;98426.75;3476987;28;20146;-42
2021/07/03 05:35:44;;;;;;;8.45;6.10;;;;;;;23.83;69.71;98432.97;3475316;28;20140;-42
2021/07/03 05:37:26;;;;;;;9.68;5.95;;;;;;;23.85;70.50;98419.66;3476495;28;20521;-43
2021/07/03 05:39:07;;;;;;;8.18;6.10;;;;;;;24.01;71.23;98430.16;3476659;28;20056;-42
2021/07/03 05:40:48;;;;;;;10.38;6.13;;;;;;;24.11;69.53;98426.03;3475426;28;20486;-43
2021/07/03 05:42:30;;;;;;;9.90;5.70;;;;;;;24.24;68.23;98439.38;3476068;28;20049;-43
2021/07/03 05:44:12;;;;;;;8.43;5.57;;;;;;;24.30;69.06;98438.16;3475827;28;20060;-43
2021/07/03 05:45:53;;;;;;;10.23;6.03;;;;;;;24.43;68.15;98439.06;3474925;28;20137;-43
2021/07/03 05:47:35;;;;;;;10.15;6.13;;;;;;;24.51;68.27;98435.94;3475711;28;20045;-42
2021/07/03 05:49:17;;;;;;;11.23;5.22;;;;;;;24.65;69.09;98439.44;3475593;28;20059;-44
2021/07/03 05:50:58;;;;;;;10.75;5.95;;;;;;;24.77;67.85;98436.91;3474161;28;20072;-43
2021/07/03 05:52:40;;;;;;;10.27;6.40;;;;;;;24.94;67.60;98434.06;3469896;28;20095;-45
2021/07/03 05:54:22;;;;;;;10.38;6.18;;;;;;;25.09;67.20;98436.66;3473414;28;20665;-45
2021/07/03 05:56:03;;;;;;;15.88;7.25;;;;;;;25.21;66.15;98439.38;3474154;28;20068;-44
2021/07/03 05:57:46;;;;;;;14.52;6.70;;;;;;;25.33;65.86;98436.84;3476478;28;20079;-46
2021/07/03 05:59:28;;;;;;;11.65;6.60;;;;;;;25.46;64.38;98436.88;3474286;28;20425;-44
2021/07/03 06:01:10;;;;;;;12.07;6.32;;;;;;;25.56;65.93;98438.81;3473795;28;20049;-45
2021/07/03 06:02:51;;;;;;;10.75;6.13;;;;;;;25.67;64.06;98435.47;3474074;28;20073;-45
2021/07/03 06:04:32;;;;;;;26.77;6.72;;;;;;;25.69;63.87;98436.22;3473198;28;20140;-44
2021/07/03 06:06:14;;;;;;;10.82;6.65;;;;;;;25.74;63.98;98447.38;3474490;28;20111;-45
2021/07/03 06:07:55;;;;;;;12.23;6.32;;;;;;;25.73;63.88;98439.50;3471883;28;20049;-46
2021/07/03 06:09:37;;;;;;;10.25;6.45;;;;;;;25.64;62.69;98445.44;3474690;28;20085;-45
2021/07/03 06:11:18;;;;;;;9.80;6.72;;;;;;;25.40;62.96;98446.09;3473016;28;20049;-45
2021/07/03 06:13:00;;;;;;;9.02;5.68;;;;;;;25.28;64.47;98444.25;3473118;28;20107;-45
2021/07/03 06:14:42;;;;;;;11.82;6.03;;;;;;;25.11;64.14;98446.25;3473482;28;20052;-45
2021/07/03 06:16:23;;;;;;;11.20;5.72;;;;;;;24.99;65.11;98453.19;3479003;28;20466;-46
2021/07/03 06:18:05;;;;;;;10.40;6.35;;;;;;;24.78;65.73;98446.59;3476283;28;20044;-44
2021/07/03 06:19:46;;;;;;;14.05;7.38;;;;;;;24.74;67.76;98450.41;3477734;28;20077;-45
2021/07/03 06:21:28;;;;;;;9.68;6.85;;;;;;;24.67;66.81;98444.63;3476065;28;20046;-45
2021/07/03 06:23:09;;;;;;;7.95;5.65;;;;;;;24.79;67.20;98441.19;3475929;28;20131;-45
2021/07/03 06:24:50;;;;;;;8.85;6.05;;;;;;;24.94;66.38;98449.13;3470821;28;20076;-46
2021/07/03 06:26:32;;;;;;;9.52;5.72;;;;;;;25.06;66.30;98440.38;3472710;28;20060;-45
2021/07/03 06:28:14;;;;;;;10.95;7.13;;;;;;;25.15;64.45;98441.56;3470648;28;20049;-46
2021/07/03 06:29:55;;;;;;;8.77;6.68;;;;;;;25.18;63.88;98441.38;3471384;28;20081;-44
2021/07/03 06:31:40;;;;;;;7.95;5.97;;;;;;;25.20;64.57;98437.66;3470146;28;20056;-45
2021/07/03 06:33:22;;;;;;;9.45;6.53;;;;;;;25.27;65.00;98435.47;3471649;28;20045;-46
2021/07/03 06:35:06;;;;;;;11.38;7.03;;;;;;;25.34;64.59;98433.25;3472367;28;20100;-46
2021/07/03 06:36:47;;;;;;;11.82;6.22;;;;;;;25.32;63.71;98436.00;3475553;28;20049;-45
2021/07/03 06:38:28;;;;;;;13.77;7.95;;;;;;;25.19;64.74;98430.63;3475116;28;20739;-44
2021/07/03 06:40:11;;;;;;;11.35;6.68;;;;;;;25.26;63.92;98430.25;3475449;28;20587;-45
2021/07/03 06:41:52;;;;;;;7.93;6.78;;;;;;;25.09;64.69;98437.53;3473672;28;20500;-46
2021/07/03 06:43:34;;;;;;;8.15;6.55;;;;;;;25.03;64.72;98429.97;3474561;28;20509;-45
2021/07/03 06:45:15;;;;;;;10.10;6.53;;;;;;;25.13;64.69;98427.56;3475571;28;20536;-45
2021/07/03 06:46:57;;;;;;;8.82;6.47;;;;;;;25.23;63.73;98436.63;3474799;28;20134;-46
2021/07/03 06:48:38;;;;;;;10.00;5.95;;;;;;;25.21;63.86;98431.41;3474839;28;20057;-45
2021/07/03 06:50:20;;;;;;;13.45;7.05;;;;;;;25.22;63.73;98429.59;3474578;28;20085;-45
2021/07/03 06:52:04;;;;;;;9.75;6.00;;;;;;;25.24;63.13;98440.97;3475862;28;20076;-46
2021/07/03 06:53:46;;;;;;;12.05;7.57;;;;;;;25.27;62.75;98438.13;3474443;28;20076;-45
2021/07/03 06:55:27;;;;;;;12.25;6.90;;;;;;;25.22;63.01;98442.88;3473355;28;20081;-45
2021/07/03 06:57:09;;;;;;;13.35;7.25;;;;;;;25.12;63.44;98444.44;3476024;28;20092;-45
2021/07/03 06:58:51;;;;;;;9.55;6.38;;;;;;;24.99;63.49;98441.72;3474122;28;20091;-45
2021/07/03 07:00:32;;;;;;;7.40;5.65;;;;;;;24.84;63.41;98446.22;3475398;28;20077;-45
2021/07/03 07:02:14;;;;;;;8.30;5.72;;;;;;;24.74;64.50;98443.28;3473645;28;20135;-45
2021/07/03 07:03:56;;;;;;;7.55;6.28;;;;;;;24.74;64.68;98448.59;3474828;28;20049;-45
2021/07/03 07:05:37;;;;;;;9.55;5.63;;;;;;;24.79;65.93;98448.28;3474668;28;20060;-44
2021/07/03 07:07:18;;;;;;;8.40;5.28;;;;;;;24.87;66.07;98450.50;3474389;28;20087;-46
2021/07/03 07:09:01;;;;;;;7.33;6.33;;;;;;;24.89;64.25;98449.44;3475407;28;20402;-45
2021/07/03 07:10:42;;;;;;;7.15;5.93;;;;;;;24.90;64.31;98445.84;3473222;28;20314;-45
2021/07/03 07:12:24;;;;;;;10.88;5.00;;;;;;;24.92;62.84;98456.34;3474928;28;20081;-46
2021/07/03 07:14:06;;;;;;;5.85;4.72;;;;;;;24.88;63.09;98452.16;3473325;28;20076;-44
2021/07/03 07:15:47;;;;;;;8.90;5.45;;;;;;;24.91;62.90;98457.28;3476181;28;20077;-44
2021/07/03 07:17:28;;;;;;;6.97;4.53;;;;;;;24.88;63.03;98460.13;3476322;28;20509;-46
2021/07/03 07:19:10;;;;;;;5.53;4.90;;;;;;;24.87;62.20;98458.44;3473733;28;20045;-46
2021/07/03 07:20:51;;;;;;;5.63;4.78;;;;;;;25.03;62.43;98462.63;3479304;28;20135;-45
2021/07/03 07:22:33;;;;;;;8.15;4.95;;;;;;;25.28;62.85;98462.84;3476982;28;20076;-45
2021/07/03 07:24:15;;;;;;;7.65;4.85;;;;;;;25.63;62.70;98460.50;3477582;28;20040;-43
2021/07/03 07:25:56;;;;;;;10.05;5.10;;;;;;;25.97;59.50;98466.16;3474640;28;20080;-43
2021/07/03 07:27:37;;;;;;;8.10;5.25;;;;;;;26.28;57.97;98466.75;3476375;28;20132;-44
2021/07/03 07:29:19;;;;;;;89.50;9.32;;;;;;;26.56;58.29;98465.63;3474639;28;20103;-43
2021/07/03 07:31:01;;;;;;;14.45;5.07;;;;;;;26.89;58.32;98465.00;3471875;28;20068;-44
2021/07/03 07:32:42;;;;;;;6.03;4.78;;;;;;;27.26;56.67;98466.78;3481752;28;20044;-43
2021/07/03 07:34:25;;;;;;;5.53;4.97;;;;;;;27.43;55.15;98466.38;3479440;28;20208;-43
2021/07/03 07:36:06;;;;;;;9.57;6.28;;;;;;;27.38;54.45;98465.88;3473250;28;20095;-44
2021/07/03 07:37:48;;;;;;;5.63;5.05;;;;;;;27.39;55.70;98461.41;3478938;28;20083;-43
2021/07/03 07:39:29;;;;;;;6.75;4.65;;;;;;;27.11;55.02;98458.97;3483535;28;20095;-44
2021/07/03 07:41:11;;;;;;;6.07;4.13;;;;;;;26.88;55.55;98465.13;3477276;28;20533;-44
2021/07/03 07:42:52;;;;;;;4.95;3.72;;;;;;;26.67;56.58;98460.38;3475107;28;20073;-44
2021/07/03 07:44:34;;;;;;;6.68;4.00;;;;;;;26.41;57.25;98469.38;3477300;28;20049;-43
2021/07/03 07:46:16;;;;;;;6.03;4.22;;;;;;;26.30;58.53;98468.31;3475959;28;20528;-44
2021/07/03 07:47:57;;;;;;;18.08;5.63;;;;;;;26.12;58.21;98461.63;3476975;28;20056;-45
2021/07/03 07:49:39;;;;;;;6.05;4.70;;;;;;;26.00;58.61;98462.47;3476946;28;20087;-46
2021/07/03 07:51:20;;;;;;;8.95;5.43;;;;;;;25.80;59.53;98477.97;3471712;28;20536;-45
2021/07/03 07:53:02;;;;;;;6.72;4.95;;;;;;;25.66;59.15;98464.78;3476661;28;20072;-46
2021/07/03 07:54:43;;;;;;;6.38;4.45;;;;;;;25.62;59.85;98469.47;3475358;28;20045;-43
2021/07/03 07:56:25;;;;;;;17.30;5.03;;;;;;;25.56;61.01;98470.69;3472795;28;20432;-44
2021/07/03 07:58:06;;;;;;;7.95;4.65;;;;;;;25.53;62.52;98468.28;3476902;28;20136;-45